Time;durP1;ratioP1;P1;durP2;ratioP2;P2;SDS_P1;SDS_P2;PMS_P1;PMS_P2;Temp;Humidity;BMP_temperature;BMP_pressure;BME280_temperature;BME280_humidity;BME280_pressure;Samples;Min_cycle;Max_cycle;Signal;HPM_P1;HPM_P2
2022/01/16 00:00:45;;;;;;;28.63;18.58;;;-1.40;99.90;;;;;;5046501;28;20223;-61
2022/01/16 00:05:55;;;;;;;31.00;19.77;;;-1.40;99.90;;;;;;5050282;28;20236;-62
2022/01/16 00:08:21;;;;;;;31.83;18.67;;;-1.40;99.90;;;;;;5034355;28;20203;-56
2022/01/16 00:10:47;;;;;;;26.60;17.97;;;-1.40;99.90;;;;;;5050255;28;20190;-57
2022/01/16 00:13:12;;;;;;;29.30;18.30;;;-1.40;99.90;;;;;;5046037;28;20437;-58
2022/01/16 00:15:38;;;;;;;29.47;17.73;;;-1.40;99.90;;;;;;5050548;28;21099;-57
2022/01/16 00:20:30;;;;;;;27.23;18.23;;;-1.40;99.90;;;;;;5045137;28;20203;-56
2022/01/16 00:22:57;;;;;;;30.38;17.55;;;-1.30;99.90;;;;;;5043019;28;20247;-56
2022/01/16 00:25:22;;;;;;;32.17;18.52;;;-1.30;99.90;;;;;;5036418;28;20174;-57
2022/01/16 00:27:49;;;;;;;28.37;18.40;;;-1.30;99.90;;;;;;5049653;28;20193;-55
2022/01/16 00:30:15;;;;;;;38.42;17.98;;;-1.40;99.90;;;;;;5027531;28;20500;-57
2022/01/16 00:32:41;;;;;;;39.38;18.95;;;-1.40;99.90;;;;;;5029907;28;20274;-56
2022/01/16 00:35:08;;;;;;;31.73;18.90;;;-1.40;99.90;;;;;;5031285;28;20641;-57
2022/01/16 00:37:33;;;;;;;29.20;18.70;;;-1.40;99.90;;;;;;5039423;28;20267;-57
2022/01/16 00:39:59;;;;;;;24.50;16.57;;;-1.40;99.90;;;;;;5039862;28;20916;-56
2022/01/16 00:42:24;;;;;;;27.13;17.00;;;-1.40;99.90;;;;;;5035742;28;20194;-57
2022/01/16 00:44:50;;;;;;;29.47;18.53;;;-1.40;99.90;;;;;;5049559;28;20653;-57
2022/01/16 00:47:16;;;;;;;26.07;17.03;;;-1.40;99.90;;;;;;5033534;28;20540;-57
2022/01/16 00:49:41;;;;;;;28.83;17.75;;;-1.50;99.90;;;;;;5035184;28;20628;-56
2022/01/16 00:52:08;;;;;;;25.80;17.00;;;-1.50;99.90;;;;;;5048203;28;20186;-54
2022/01/16 00:54:35;;;;;;;29.08;17.90;;;-1.60;99.90;;;;;;5037331;28;20197;-57
2022/01/16 00:57:00;;;;;;;30.30;16.98;;;-1.60;99.90;;;;;;5046615;28;20535;-57
2022/01/16 00:59:26;;;;;;;21.10;15.50;;;-1.60;99.90;;;;;;5037947;28;20195;-58
2022/01/16 01:01:51;;;;;;;29.90;16.80;;;-1.60;99.90;;;;;;5029269;28;20293;-57
2022/01/16 01:04:17;;;;;;;30.10;16.87;;;-1.60;99.90;;;;;;5028006;28;20183;-56
2022/01/16 01:06:47;;;;;;;24.80;17.27;;;-1.60;99.90;;;;;;5029951;28;20956;-56
2022/01/16 01:09:12;;;;;;;28.08;15.82;;;-1.60;99.90;;;;;;5034762;28;20709;-57
2022/01/16 01:11:39;;;;;;;25.50;17.47;;;-1.60;99.90;;;;;;5049517;28;20274;-57
2022/01/16 01:16:50;;;;;;;27.70;18.13;;;-1.60;99.90;;;;;;5039096;28;20189;-55
2022/01/16 01:19:18;;;;;;;28.58;17.13;;;-1.60;99.90;;;;;;5045636;28;20217;-55
2022/01/16 01:21:44;;;;;;;25.42;17.13;;;-1.60;99.90;;;;;;5049120;28;20190;-55
2022/01/16 01:24:09;;;;;;;26.53;15.90;;;-1.70;99.90;;;;;;5029331;28;20281;-57
2022/01/16 01:26:43;;;;;;;29.90;17.97;;;-1.60;99.90;;;;;;5038603;28;20181;-56
2022/01/16 01:29:09;;;;;;;30.58;17.38;;;-1.60;99.90;;;;;;5029911;28;20206;-57
2022/01/16 01:31:34;;;;;;;25.43;16.90;;;-1.70;99.90;;;;;;5028461;28;20198;-57
2022/01/16 01:34:00;;;;;;;33.17;16.87;;;-1.70;99.90;;;;;;5029733;28;20644;-54
2022/01/16 01:36:25;;;;;;;28.57;18.70;;;-1.70;99.90;;;;;;5047265;28;20185;-54
2022/01/16 01:38:51;;;;;;;26.97;16.77;;;-1.70;99.90;;;;;;5045403;28;20840;-56
2022/01/16 01:41:19;;;;;;;24.30;16.50;;;-1.70;99.90;;;;;;5034749;28;20189;-56
2022/01/16 01:51:44;;;;;;;24.65;15.48;;;-1.70;99.90;;;;;;5043041;28;20189;-57
2022/01/16 01:54:11;;;;;;;24.35;16.17;;;-1.70;99.90;;;;;;5041312;28;20201;-58
2022/01/16 01:56:38;;;;;;;25.20;16.40;;;-1.70;99.90;;;;;;5031733;28;20189;-56
2022/01/16 01:59:04;;;;;;;25.13;16.00;;;-1.70;99.90;;;;;;5039520;28;20255;-57
2022/01/16 02:01:31;;;;;;;27.00;15.57;;;-1.70;99.90;;;;;;5048639;28;20656;-56
2022/01/16 02:03:57;;;;;;;33.53;16.05;;;-1.70;99.90;;;;;;5043338;28;20445;-57
2022/01/16 02:06:26;;;;;;;27.10;15.18;;;-1.70;99.90;;;;;;5048594;28;20197;-48
2022/01/16 02:08:56;;;;;;;27.85;15.35;;;-1.60;99.90;;;;;;5034940;28;20242;-56
2022/01/16 02:11:26;;;;;;;33.13;16.08;;;-1.70;99.90;;;;;;5032849;28;20285;-56
2022/01/16 02:32:59;;;;;;;31.27;14.68;;;-1.60;99.90;;;;;;5042513;28;20220;-58
2022/01/16 02:35:25;;;;;;;32.85;15.10;;;-1.70;99.90;;;;;;5042207;28;20546;-57
2022/01/16 02:37:51;;;;;;;21.15;13.77;;;-1.70;99.90;;;;;;5034976;28;20604;-56
2022/01/16 02:40:21;;;;;;;27.80;15.57;;;-1.80;99.90;;;;;;5051687;28;20190;-57
2022/01/16 02:42:50;;;;;;;21.73;14.50;;;-1.80;99.90;;;;;;5040195;28;20193;-58
2022/01/16 02:45:28;;;;;;;30.13;14.63;;;-1.80;99.90;;;;;;5041873;28;20739;-57
2022/01/16 02:47:58;;;;;;;23.83;14.07;;;-1.90;99.90;;;;;;5041827;28;20174;-55
2022/01/16 02:50:24;;;;;;;22.27;14.90;;;-1.90;99.90;;;;;;5047386;28;20760;-54
2022/01/16 02:52:50;;;;;;;24.02;14.60;;;-1.90;99.90;;;;;;5034348;28;20272;-57
2022/01/16 02:55:19;;;;;;;23.37;13.57;;;-1.90;99.90;;;;;;5051417;28;20605;-56
2022/01/16 02:57:45;;;;;;;24.70;14.10;;;-1.90;99.90;;;;;;5036280;28;20444;-57
2022/01/16 03:00:11;;;;;;;28.70;14.20;;;-1.90;99.90;;;;;;5051525;28;20178;-57
2022/01/16 03:02:37;;;;;;;22.75;13.40;;;-1.90;99.90;;;;;;5037951;28;20187;-58
2022/01/16 03:05:04;;;;;;;22.90;14.20;;;-1.90;99.90;;;;;;5040343;28;20205;-56
2022/01/16 03:07:29;;;;;;;20.33;13.18;;;-2.00;99.90;;;;;;5040058;28;20183;-57
2022/01/16 03:12:48;;;;;;;26.45;13.98;;;-2.00;99.90;;;;;;5036904;28;20232;-59
2022/01/16 03:15:17;;;;;;;21.52;14.30;;;-2.10;99.90;;;;;;5041707;28;20183;-55
2022/01/16 03:23:13;;;;;;;24.77;13.30;;;-2.00;99.90;;;;;;5029812;28;20198;-57
2022/01/16 03:25:39;;;;;;;20.77;14.30;;;-2.00;99.90;;;;;;5041685;28;20179;-59
2022/01/16 03:28:05;;;;;;;31.70;15.40;;;-2.10;99.90;;;;;;5030381;28;20191;-57
2022/01/16 03:30:30;;;;;;;17.98;13.27;;;-2.10;99.90;;;;;;5031004;28;20228;-57
2022/01/16 03:32:56;;;;;;;23.00;13.27;;;-2.20;99.90;;;;;;5029028;28;20198;-57
2022/01/16 03:35:22;;;;;;;22.93;13.50;;;-2.20;99.90;;;;;;5050442;28;20182;-55
2022/01/16 03:37:47;;;;;;;23.80;15.13;;;-2.20;99.90;;;;;;5034490;28;20209;-57
2022/01/16 03:40:14;;;;;;;24.03;13.80;;;-2.20;99.90;;;;;;5035221;28;20238;-57
2022/01/16 03:42:40;;;;;;;23.52;14.38;;;-2.20;99.90;;;;;;5045725;28;20194;-57
2022/01/16 03:45:07;;;;;;;29.15;14.15;;;-2.20;99.90;;;;;;5021125;28;20535;-55
2022/01/16 03:47:33;;;;;;;25.08;12.93;;;-2.20;99.90;;;;;;5036839;28;20190;-56
2022/01/16 03:49:58;;;;;;;21.17;13.83;;;-2.20;99.90;;;;;;5037976;28;20689;-53
2022/01/16 03:52:24;;;;;;;24.27;13.57;;;-2.20;99.90;;;;;;5030360;28;20190;-57
2022/01/16 03:54:50;;;;;;;21.53;13.63;;;-2.20;99.90;;;;;;5049038;28;20505;-58
2022/01/16 03:57:15;;;;;;;23.60;14.50;;;-2.30;99.90;;;;;;5034923;28;20260;-59
2022/01/16 03:59:41;;;;;;;24.57;13.37;;;-2.40;99.90;;;;;;5030223;28;20274;-56
2022/01/16 04:02:06;;;;;;;22.37;13.93;;;-2.40;99.90;;;;;;5029206;28;20276;-60
2022/01/16 04:04:32;;;;;;;23.50;13.07;;;-2.40;99.90;;;;;;5035548;28;20670;-59
2022/01/16 04:06:59;;;;;;;24.83;12.73;;;-2.30;99.90;;;;;;5030428;28;20265;-57
2022/01/16 04:09:26;;;;;;;23.15;13.25;;;-2.40;99.90;;;;;;5035903;28;20538;-57
2022/01/16 04:11:54;;;;;;;20.50;14.02;;;-2.30;99.90;;;;;;5029855;28;20183;-57
2022/01/16 04:15:31;;;;;;;22.95;13.05;;;-2.40;99.90;;;;;;5047436;28;20182;-60
2022/01/16 04:17:07;;;;;;;27.35;14.93;;;-2.40;99.90;;;;;;5041020;28;20197;-57
2022/01/16 04:19:32;;;;;;;19.97;13.30;;;-2.40;99.90;;;;;;5040902;28;20656;-59
2022/01/16 04:21:58;;;;;;;24.33;12.70;;;-2.40;99.90;;;;;;5039257;28;20187;-60
2022/01/16 04:24:23;;;;;;;26.33;14.13;;;-2.40;99.90;;;;;;5027820;28;20336;-58
2022/01/16 04:26:49;;;;;;;22.97;13.57;;;-2.40;99.90;;;;;;5029157;28;20291;-59
2022/01/16 04:29:15;;;;;;;24.53;13.50;;;-2.40;99.90;;;;;;5029323;28;20202;-56
2022/01/16 04:31:40;;;;;;;21.77;12.83;;;-2.40;99.90;;;;;;5030284;28;20175;-56
2022/01/16 04:34:06;;;;;;;25.93;13.90;;;-2.50;99.90;;;;;;5028987;28;20191;-57
2022/01/16 04:36:31;;;;;;;24.73;13.27;;;-2.50;99.90;;;;;;5028051;28;20715;-56
2022/01/16 04:38:57;;;;;;;24.63;13.70;;;-2.40;99.90;;;;;;5029249;28;20194;-57
2022/01/16 04:44:08;;;;;;;22.52;14.00;;;-2.30;99.90;;;;;;5027874;28;20198;-56
2022/01/16 04:46:34;;;;;;;21.85;13.38;;;-2.30;99.90;;;;;;5029422;28;20221;-56
2022/01/16 04:49:01;;;;;;;24.67;13.07;;;-2.20;99.90;;;;;;5023058;28;20227;-58
2022/01/16 04:51:28;;;;;;;27.55;12.90;;;-2.20;99.90;;;;;;5032898;28;20240;-56
2022/01/16 04:53:53;;;;;;;22.08;13.15;;;-2.10;99.90;;;;;;5038301;28;20194;-56
2022/01/16 04:56:19;;;;;;;25.67;14.40;;;-2.10;99.90;;;;;;5044889;28;20186;-54
2022/01/16 04:58:45;;;;;;;25.43;13.47;;;-2.00;99.90;;;;;;5028193;28;20193;-56
2022/01/16 05:01:11;;;;;;;21.42;13.02;;;-2.00;99.90;;;;;;5044014;28;20424;-55
2022/01/16 05:03:38;;;;;;;24.00;14.20;;;-1.90;99.90;;;;;;5040784;28;20658;-57
2022/01/16 05:06:04;;;;;;;25.58;14.20;;;-1.90;99.90;;;;;;5035569;28;20935;-52
2022/01/16 05:08:31;;;;;;;29.25;14.73;;;-1.80;99.90;;;;;;5044288;28;20217;-55
2022/01/16 05:10:57;;;;;;;22.20;14.05;;;-1.80;99.90;;;;;;5039544;28;20186;-61
2022/01/16 05:18:47;;;;;;;23.17;13.30;;;-1.90;99.90;;;;;;5038228;28;20295;-57
2022/01/16 05:21:13;;;;;;;22.40;13.17;;;-2.00;99.90;;;;;;5045214;28;20204;-57
2022/01/16 05:23:40;;;;;;;29.13;14.73;;;-2.00;99.90;;;;;;5040810;28;20840;-57
2022/01/16 05:26:06;;;;;;;29.23;14.25;;;-2.00;99.90;;;;;;5028557;28;20183;-56
2022/01/16 05:28:32;;;;;;;28.05;13.60;;;-2.00;99.90;;;;;;5028619;28;20195;-56
2022/01/16 05:30:57;;;;;;;22.75;12.75;;;-2.10;99.90;;;;;;5027141;28;20254;-57
2022/01/16 05:33:23;;;;;;;21.70;14.00;;;-2.10;99.90;;;;;;5029343;28;20638;-57
2022/01/16 05:35:49;;;;;;;20.63;12.90;;;-2.10;99.90;;;;;;5028453;28;20179;-56
2022/01/16 05:38:15;;;;;;;19.73;12.43;;;-2.10;99.90;;;;;;5027210;28;20446;-54
2022/01/16 05:40:40;;;;;;;25.50;14.07;;;-2.10;99.90;;;;;;5028410;28;20183;-57
2022/01/16 05:43:06;;;;;;;24.00;13.17;;;-2.10;99.90;;;;;;5028310;28;20195;-57
2022/01/16 05:45:32;;;;;;;24.40;13.30;;;-2.10;99.90;;;;;;5027114;28;20195;-57
2022/01/16 05:47:58;;;;;;;24.60;12.80;;;-2.10;99.90;;;;;;5026212;28;20217;-57
2022/01/16 05:50:24;;;;;;;24.10;14.57;;;-2.20;99.90;;;;;;5031374;28;21027;-57
2022/01/16 05:52:50;;;;;;;21.97;13.10;;;-2.10;99.90;;;;;;5035598;28;20453;-57
2022/01/16 05:55:16;;;;;;;24.42;13.90;;;-2.10;99.90;;;;;;5033236;28;20335;-55
2022/01/16 05:57:42;;;;;;;25.73;13.70;;;-2.10;99.90;;;;;;5028062;28;20213;-56
2022/01/16 06:00:10;;;;;;;24.87;14.20;;;-2.10;99.90;;;;;;5026409;28;20708;-57
2022/01/16 06:02:35;;;;;;;24.08;13.50;;;-2.10;99.90;;;;;;5033158;28;20198;-57
2022/01/16 06:05:02;;;;;;;25.50;14.43;;;-2.10;99.90;;;;;;5043104;28;20187;-57
2022/01/16 06:07:28;;;;;;;24.30;13.85;;;-2.10;99.90;;;;;;5031713;28;20218;-56
2022/01/16 06:09:53;;;;;;;29.87;14.50;;;-2.10;99.90;;;;;;5046079;28;20206;-56
2022/01/16 06:12:19;;;;;;;22.20;13.60;;;-2.10;99.90;;;;;;5029499;28;20191;-58
2022/01/16 06:14:45;;;;;;;28.40;14.85;;;-2.10;99.90;;;;;;5045738;28;20214;-55
2022/01/16 06:17:10;;;;;;;30.50;14.93;;;-2.10;99.90;;;;;;5031560;28;20229;-54
2022/01/16 06:19:36;;;;;;;26.33;15.00;;;-2.10;99.90;;;;;;5032204;28;20289;-57
2022/01/16 06:22:02;;;;;;;27.73;15.10;;;-2.10;99.90;;;;;;5031776;28;20539;-56
2022/01/16 06:24:27;;;;;;;25.80;13.77;;;-2.00;99.90;;;;;;5032257;28;20634;-57
2022/01/16 06:26:53;;;;;;;24.73;13.80;;;-2.00;99.90;;;;;;5031876;28;20195;-57
2022/01/16 06:29:19;;;;;;;23.07;14.07;;;-2.10;99.90;;;;;;5032764;28;20199;-57
2022/01/16 06:31:44;;;;;;;24.77;14.70;;;-2.10;99.90;;;;;;5029908;28;20195;-56
2022/01/16 06:34:10;;;;;;;26.70;14.40;;;-2.10;99.90;;;;;;5031504;28;20537;-57
2022/01/16 06:36:37;;;;;;;27.98;15.57;;;-2.10;99.90;;;;;;5028792;28;20194;-57
2022/01/16 06:39:08;;;;;;;28.83;16.08;;;-2.10;99.90;;;;;;5032330;28;20258;-57
2022/01/16 06:41:34;;;;;;;25.60;14.77;;;-2.10;99.90;;;;;;5030805;28;20195;-57
2022/01/16 06:44:00;;;;;;;23.10;14.93;;;-2.10;99.90;;;;;;5031699;28;20187;-57
2022/01/16 06:46:25;;;;;;;28.38;14.63;;;-2.10;99.90;;;;;;5031395;28;20191;-55
2022/01/16 06:48:51;;;;;;;23.53;14.83;;;-2.10;99.90;;;;;;5031961;28;20198;-56
2022/01/16 06:51:19;;;;;;;29.63;16.80;;;-2.00;99.90;;;;;;5032927;28;20297;-57
2022/01/16 06:53:46;;;;;;;24.05;14.45;;;-2.00;99.90;;;;;;5049873;28;20420;-55
2022/01/16 06:56:12;;;;;;;28.73;15.90;;;-2.00;99.90;;;;;;5035678;28;20198;-57
2022/01/16 06:58:37;;;;;;;30.13;18.20;;;-2.00;99.90;;;;;;5039444;28;20190;-54
2022/01/16 07:01:03;;;;;;;35.10;17.67;;;-1.90;99.90;;;;;;5034662;28;20442;-57
2022/01/16 07:03:28;;;;;;;35.53;18.10;;;-2.00;99.90;;;;;;5050693;28;20182;-57
2022/01/16 07:05:54;;;;;;;28.80;15.93;;;-2.00;99.90;;;;;;5039798;28;20229;-56
2022/01/16 07:08:23;;;;;;;27.93;15.33;;;-2.00;99.90;;;;;;5028064;28;20210;-57
2022/01/16 07:10:50;;;;;;;28.13;16.30;;;-1.90;99.90;;;;;;5030424;28;20183;-58
2022/01/16 07:13:16;;;;;;;23.27;15.48;;;-1.90;99.90;;;;;;5027977;28;20937;-59
2022/01/16 07:15:41;;;;;;;26.83;13.90;;;-1.90;99.90;;;;;;5030420;28;20191;-56
2022/01/16 07:18:07;;;;;;;22.10;14.43;;;-1.80;99.90;;;;;;5031462;28;20441;-58
2022/01/16 07:20:32;;;;;;;27.73;17.70;;;-1.90;99.90;;;;;;5036397;28;20549;-57
2022/01/16 07:22:58;;;;;;;28.70;16.33;;;-1.90;99.90;;;;;;5039498;28;20179;-58
2022/01/16 07:25:23;;;;;;;27.13;15.23;;;-1.80;99.90;;;;;;5030330;28;20179;-59
2022/01/16 07:27:49;;;;;;;23.60;15.67;;;-1.80;99.90;;;;;;5029989;28;20189;-59
2022/01/16 07:30:14;;;;;;;25.20;15.93;;;-1.80;99.90;;;;;;5031425;28;20214;-57
2022/01/16 07:32:40;;;;;;;26.80;16.37;;;-1.80;99.90;;;;;;5031966;28;20221;-59
2022/01/16 07:35:06;;;;;;;31.10;16.53;;;-1.70;99.90;;;;;;5030371;28;20190;-59
2022/01/16 07:37:31;;;;;;;31.45;17.27;;;-1.70;99.90;;;;;;5027637;28;20183;-57
2022/01/16 07:39:57;;;;;;;33.13;15.80;;;-1.60;99.90;;;;;;5031757;28;20197;-57
2022/01/16 07:42:23;;;;;;;25.03;14.90;;;-1.50;99.90;;;;;;5029248;28;20191;-57
2022/01/16 07:44:48;;;;;;;31.10;16.90;;;-1.50;99.90;;;;;;5030126;28;20452;-58
2022/01/16 07:47:14;;;;;;;33.50;17.70;;;-1.40;99.90;;;;;;5029370;28;20212;-59
2022/01/16 07:49:40;;;;;;;32.20;18.00;;;-1.30;99.90;;;;;;5027955;28;20230;-59
2022/01/16 07:52:05;;;;;;;27.80;17.30;;;-1.20;99.90;;;;;;5029144;28;20679;-58
2022/01/16 07:54:31;;;;;;;25.70;16.20;;;-1.10;99.90;;;;;;5035248;28;20183;-58
2022/01/16 07:56:57;;;;;;;29.87;18.00;;;-1.00;99.90;;;;;;5038012;28;20447;-58
2022/01/16 07:59:22;;;;;;;34.50;19.13;;;-0.90;99.90;;;;;;5030324;28;20194;-58
2022/01/16 08:01:48;;;;;;;32.63;17.50;;;-0.80;99.90;;;;;;5028389;28;20637;-59
2022/01/16 08:04:13;;;;;;;29.77;18.33;;;-0.60;99.90;;;;;;5033607;28;20683;-59
2022/01/16 08:06:39;;;;;;;32.00;18.90;;;-0.50;99.90;;;;;;5029980;28;20187;-59
2022/01/16 08:09:04;;;;;;;25.37;17.20;;;-0.40;99.90;;;;;;5028373;28;20198;-59
2022/01/16 08:11:30;;;;;;;26.80;16.33;;;-0.30;99.90;;;;;;5024546;28;20650;-57
2022/01/16 08:13:55;;;;;;;27.87;17.60;;;-0.10;99.90;;;;;;5028473;28;20953;-60
2022/01/16 08:16:21;;;;;;;29.30;18.10;;;0.00;99.90;;;;;;5032181;28;20208;-59
2022/01/16 08:18:46;;;;;;;25.37;17.37;;;0.20;99.90;;;;;;5028890;28;20190;-60
2022/01/16 08:21:12;;;;;;;29.03;16.50;;;0.40;99.90;;;;;;5029689;28;20190;-60
2022/01/16 08:23:38;;;;;;;26.10;17.03;;;0.70;99.90;;;;;;5033087;28;20926;-60
2022/01/16 08:26:04;;;;;;;29.20;17.27;;;0.90;99.90;;;;;;5044005;28;20186;-59
2022/01/16 08:28:30;;;;;;;23.63;16.40;;;1.20;99.90;;;;;;5035587;28;20313;-60
2022/01/16 08:30:56;;;;;;;27.57;16.90;;;1.30;99.90;;;;;;5030172;28;20634;-60
2022/01/16 08:33:21;;;;;;;29.13;18.60;;;1.40;99.90;;;;;;5030391;28;21094;-60
2022/01/16 08:35:47;;;;;;;33.00;18.13;;;1.50;99.90;;;;;;5035272;28;20194;-60
2022/01/16 08:38:12;;;;;;;27.77;17.30;;;1.60;99.90;;;;;;5032082;28;20198;-60
2022/01/16 08:40:38;;;;;;;23.87;16.50;;;1.80;99.90;;;;;;5028919;28;20198;-59
2022/01/16 08:43:08;;;;;;;24.57;15.90;;;2.30;99.90;;;;;;5032513;28;20573;-60
2022/01/16 08:45:36;;;;;;;24.35;15.27;;;2.70;99.90;;;;;;5027150;28;20194;-57
2022/01/16 08:48:01;;;;;;;22.70;16.33;;;3.10;99.90;;;;;;5028829;28;20175;-59
2022/01/16 08:50:27;;;;;;;24.30;15.07;;;3.70;99.90;;;;;;5031114;28;20238;-58
2022/01/16 08:52:53;;;;;;;22.35;15.45;;;4.40;99.90;;;;;;5028132;28;20187;-56
2022/01/16 08:55:19;;;;;;;21.03;15.27;;;4.90;99.90;;;;;;5033210;28;20233;-59
2022/01/16 08:57:44;;;;;;;24.17;17.87;;;5.60;99.90;;;;;;5035998;28;20217;-59
2022/01/16 09:00:10;;;;;;;24.23;17.13;;;5.90;99.90;;;;;;5026879;28;20195;-56
2022/01/16 09:02:36;;;;;;;22.13;17.20;;;6.20;99.90;;;;;;5028809;28;20194;-54
2022/01/16 09:05:04;;;;;;;22.53;17.43;;;6.40;99.90;;;;;;5039320;28;20435;-58
2022/01/16 09:07:29;;;;;;;19.77;17.10;;;6.50;99.90;;;;;;5027748;28;20437;-57
2022/01/16 09:09:57;;;;;;;21.57;17.27;;;6.60;99.90;;;;;;5024499;28;20516;-57
2022/01/16 09:12:23;;;;;;;26.47;19.50;;;6.80;99.90;;;;;;5028495;28;20175;-53
2022/01/16 09:14:48;;;;;;;25.40;19.40;;;7.00;99.90;;;;;;5028944;28;20421;-54
2022/01/16 09:17:14;;;;;;;25.63;19.03;;;7.00;99.90;;;;;;5028759;28;20505;-55
2022/01/16 09:19:42;;;;;;;26.97;20.80;;;6.80;99.90;;;;;;5017815;28;20196;-51
2022/01/16 09:22:09;;;;;;;29.43;19.80;;;6.50;99.90;;;;;;5008443;28;21004;-59
2022/01/16 09:24:34;;;;;;;28.00;20.15;;;6.00;99.90;;;;;;5006738;28;21162;-58
2022/01/16 09:27:00;;;;;;;25.57;19.80;;;5.70;99.90;;;;;;5006848;28;20187;-59
2022/01/16 09:29:26;;;;;;;28.75;21.02;;;5.80;99.90;;;;;;5007222;28;20344;-58
2022/01/16 09:31:52;;;;;;;31.87;21.00;;;5.40;99.90;;;;;;5007577;28;20678;-59
2022/01/16 09:34:17;;;;;;;28.80;20.73;;;5.40;99.90;;;;;;5009431;28;20412;-53
2022/01/16 09:36:43;;;;;;;29.53;20.30;;;5.10;99.90;;;;;;5007811;28;20214;-52
2022/01/16 09:39:09;;;;;;;27.23;20.10;;;5.10;99.90;;;;;;5007882;28;20179;-52
2022/01/16 09:41:35;;;;;;;28.85;20.30;;;5.50;99.90;;;;;;5011050;28;20456;-55
2022/01/16 09:44:01;;;;;;;28.80;22.10;;;5.70;99.90;;;;;;5030463;28;20187;-57
2022/01/16 09:46:26;;;;;;;26.80;21.07;;;5.90;99.90;;;;;;5028152;28;20242;-55
2022/01/16 09:48:52;;;;;;;29.03;20.87;;;5.90;99.90;;;;;;5030443;28;20485;-56
2022/01/16 09:51:17;;;;;;;28.33;22.20;;;6.10;99.90;;;;;;5032054;28;20259;-54
2022/01/16 09:53:43;;;;;;;28.83;21.10;;;6.20;99.90;;;;;;5037668;28;20273;-53
2022/01/16 09:56:10;;;;;;;31.80;21.47;;;6.50;99.90;;;;;;5051792;28;20182;-53
2022/01/16 09:58:37;;;;;;;26.10;20.53;;;6.90;99.90;;;;;;5052037;28;20213;-54
2022/01/16 10:01:03;;;;;;;26.73;20.03;;;7.60;99.90;;;;;;5038844;28;20469;-56
2022/01/16 10:03:34;;;;;;;29.70;20.67;;;8.50;99.90;;;;;;5050812;28;20512;-56
2022/01/16 10:06:19;;;;;;;25.80;19.97;;;9.10;97.30;;;;;;5051772;28;20420;-56
2022/01/16 10:08:46;;;;;;;26.37;19.83;;;9.40;94.70;;;;;;5019014;28;20464;-56
2022/01/16 10:11:39;;;;;;;27.90;21.17;;;9.90;93.60;;;;;;5031271;28;20441;-57
2022/01/16 10:16:39;;;;;;;28.63;22.27;;;9.80;91.80;;;;;;5051624;28;20421;-54
2022/01/16 10:19:17;;;;;;;25.67;20.90;;;9.60;91.10;;;;;;5039094;28;20552;-56
2022/01/16 10:21:43;;;;;;;26.03;19.73;;;9.60;91.00;;;;;;5028988;28;20812;-57
2022/01/16 10:24:20;;;;;;;25.60;21.47;;;9.30;91.30;;;;;;5030557;28;20426;-60
2022/01/16 10:26:47;;;;;;;25.67;19.87;;;9.00;91.50;;;;;;5030672;28;20421;-57
2022/01/16 10:29:18;;;;;;;29.10;20.67;;;8.90;93.00;;;;;;5031737;28;20543;-56
2022/01/16 10:31:44;;;;;;;25.57;21.00;;;9.20;92.10;;;;;;5030549;28;20517;-56
2022/01/16 10:34:32;;;;;;;27.97;21.43;;;9.50;90.60;;;;;;5031897;28;20508;-53
2022/01/16 10:36:58;;;;;;;28.73;21.70;;;9.50;91.00;;;;;;5031355;28;20803;-52
2022/01/16 10:39:24;;;;;;;24.63;19.07;;;9.80;90.00;;;;;;5031702;28;20471;-54
2022/01/16 10:42:12;;;;;;;25.37;19.93;;;10.00;89.50;;;;;;5031636;28;20409;-56
2022/01/16 10:44:38;;;;;;;27.33;20.77;;;9.60;87.60;;;;;;5031892;28;20182;-54
2022/01/16 10:47:24;;;;;;;27.53;20.50;;;9.70;88.70;;;;;;5034984;28;20432;-54
2022/01/16 10:50:08;;;;;;;27.43;19.80;;;9.40;90.20;;;;;;5029945;28;20551;-56
2022/01/16 10:52:45;;;;;;;28.03;21.10;;;9.30;90.00;;;;;;5030673;28;20426;-52
2022/01/16 10:55:10;;;;;;;28.13;21.70;;;9.20;90.00;;;;;;5029708;28;20520;-57
2022/01/16 10:57:36;;;;;;;26.03;20.63;;;9.00;90.30;;;;;;5030110;28;20493;-56
2022/01/16 11:00:11;;;;;;;25.80;20.37;;;9.30;90.80;;;;;;5029465;28;20741;-55
2022/01/16 11:02:42;;;;;;;24.60;20.03;;;10.00;88.40;;;;;;5042581;28;21223;-56
2022/01/16 11:05:09;;;;;;;23.97;19.60;;;10.00;85.90;;;;;;5043098;28;20618;-56
2022/01/16 11:07:35;;;;;;;25.87;20.70;;;10.70;86.10;;;;;;5050403;28;20771;-57
2022/01/16 11:10:21;;;;;;;29.30;21.47;;;11.20;82.00;;;;;;5030404;28;20461;-51
2022/01/16 11:12:49;;;;;;;29.77;21.50;;;11.50;78.00;;;;;;5029119;28;20429;-56
2022/01/16 11:15:15;;;;;;;29.37;21.23;;;11.40;78.60;;;;;;5030282;28;20422;-54
2022/01/16 11:17:41;;;;;;;22.83;19.03;;;11.80;75.50;;;;;;5031855;28;20826;-59
2022/01/16 11:20:08;;;;;;;20.87;17.37;;;11.60;73.80;;;;;;5029663;28;20437;-54
2022/01/16 11:22:55;;;;;;;20.93;18.03;;;11.50;72.80;;;;;;5029314;28;20245;-53
2022/01/16 11:25:30;;;;;;;21.90;17.97;;;10.90;73.40;;;;;;5027004;28;20900;-54
2022/01/16 11:28:17;;;;;;;19.83;16.63;;;10.40;77.10;;;;;;5025496;28;20421;-55
2022/01/16 11:30:47;;;;;;;21.30;17.00;;;10.40;76.00;;;;;;5019633;28;20847;-53
2022/01/16 11:33:13;;;;;;;20.73;17.70;;;10.10;77.60;;;;;;5014876;28;20411;-53
2022/01/16 11:35:48;;;;;;;22.70;17.40;;;9.80;78.80;;;;;;5015435;28;20440;-55
2022/01/16 11:38:15;;;;;;;24.83;19.23;;;9.60;80.20;;;;;;5029360;28;20826;-54
2022/01/16 11:40:48;;;;;;;20.23;16.83;;;9.00;84.50;;;;;;5029656;28;20579;-54
2022/01/16 11:43:31;;;;;;;19.17;15.50;;;8.80;86.10;;;;;;5029843;28;20599;-56
2022/01/16 11:46:06;;;;;;;21.17;15.77;;;8.50;88.00;;;;;;5027564;28;20546;-55
2022/01/16 11:48:35;;;;;;;17.60;14.13;;;8.30;90.20;;;;;;5027334;28;20472;-53
2022/01/16 11:51:02;;;;;;;11.17;9.30;;;7.90;91.60;;;;;;5028470;28;21126;-54
2022/01/16 11:54:02;;;;;;;10.67;8.23;;;7.70;94.00;;;;;;5029158;28;20414;-52
2022/01/16 11:59:15;;;;;;;11.02;9.07;;;6.80;98.60;;;;;;5042028;28;20421;-54
2022/01/16 12:02:05;;;;;;;12.30;8.93;;;6.50;99.90;;;;;;5042506;28;20653;-55
2022/01/16 12:04:30;;;;;;;9.52;8.23;;;6.20;99.90;;;;;;5030006;28;20187;-55
2022/01/16 12:06:56;;;;;;;10.40;8.70;;;6.10;99.90;;;;;;5037519;28;20186;-55
2022/01/16 12:09:57;;;;;;;10.10;7.20;;;5.80;99.90;;;;;;5033404;28;20269;-53
2022/01/16 12:12:23;;;;;;;9.35;7.75;;;5.60;99.90;;;;;;5017534;28;20612;-54
2022/01/16 12:14:53;;;;;;;9.63;7.37;;;5.40;99.90;;;;;;5025887;28;20391;-54
2022/01/16 12:17:28;;;;;;;9.80;7.20;;;5.30;99.90;;;;;;5037779;28;20580;-52
2022/01/16 12:19:57;;;;;;;10.43;7.13;;;5.20;99.90;;;;;;5030064;28;20221;-53
2022/01/16 12:22:53;;;;;;;7.90;7.10;;;5.10;99.90;;;;;;5027695;28;20187;-52
2022/01/16 12:25:27;;;;;;;10.25;7.03;;;4.80;99.90;;;;;;5041626;28;20630;-55
2022/01/16 12:27:57;;;;;;;10.55;7.65;;;4.70;99.90;;;;;;5041617;28;20193;-52
2022/01/16 12:30:37;;;;;;;11.00;8.20;;;4.60;99.90;;;;;;5041365;28;20206;-53
2022/01/16 12:33:13;;;;;;;10.80;7.38;;;4.50;99.90;;;;;;5035883;28;20260;-51
2022/01/16 12:35:39;;;;;;;10.05;7.30;;;4.40;99.90;;;;;;5034157;28;20595;-51
2022/01/16 12:38:10;;;;;;;9.43;7.73;;;4.40;99.90;;;;;;5048850;28;20190;-53
2022/01/16 12:40:38;;;;;;;11.27;7.50;;;4.40;99.90;;;;;;5048434;28;20323;-54
2022/01/16 12:43:08;;;;;;;9.18;7.03;;;4.40;99.90;;;;;;5048792;28;20178;-55
2022/01/16 12:45:38;;;;;;;9.40;7.45;;;4.30;99.90;;;;;;5047800;28;20216;-55
2022/01/16 12:48:05;;;;;;;10.80;7.15;;;4.40;99.90;;;;;;5048861;28;20190;-54
2022/01/16 12:50:30;;;;;;;9.48;7.30;;;4.40;99.90;;;;;;5037538;28;20925;-55
2022/01/16 12:52:56;;;;;;;10.47;6.93;;;4.40;99.90;;;;;;5024240;28;20184;-55
2022/01/16 12:55:29;;;;;;;9.23;7.03;;;4.30;99.90;;;;;;5017443;28;20267;-55
2022/01/16 12:58:13;;;;;;;11.57;7.90;;;4.20;99.90;;;;;;5044271;28;20589;-54
2022/01/16 13:01:03;;;;;;;9.38;7.07;;;4.20;99.90;;;;;;5048686;28;20733;-53
2022/01/16 13:03:31;;;;;;;10.02;7.40;;;4.20;99.90;;;;;;5045190;28;20189;-51
2022/01/16 13:06:19;;;;;;;13.88;7.55;;;4.20;99.90;;;;;;5030202;28;20186;-55
2022/01/16 13:08:58;;;;;;;10.95;7.28;;;4.20;99.90;;;;;;5037799;28;20302;-54
2022/01/16 13:11:27;;;;;;;10.07;7.50;;;4.20;99.90;;;;;;5022437;28;20174;-53
2022/01/16 13:13:53;;;;;;;12.00;8.20;;;4.10;99.90;;;;;;5048285;28;20198;-53
2022/01/16 13:16:24;;;;;;;11.48;8.50;;;4.10;99.90;;;;;;5026282;28;20187;-50
2022/01/16 13:19:24;;;;;;;14.38;9.60;;;4.10;99.90;;;;;;5027766;28;20190;-52
2022/01/16 13:24:30;;;;;;;12.38;8.10;;;4.10;99.90;;;;;;5029731;28;20175;-48
2022/01/16 13:26:56;;;;;;;13.25;9.60;;;4.10;99.90;;;;;;5021575;28;20195;-52
2022/01/16 13:29:22;;;;;;;14.25;8.60;;;4.00;99.90;;;;;;5027158;28;20199;-53
2022/01/16 13:31:50;;;;;;;17.80;9.03;;;4.00;99.90;;;;;;5035011;28;20717;-55
2022/01/16 13:34:31;;;;;;;12.05;8.00;;;4.00;99.90;;;;;;5033184;28;20923;-55
2022/01/16 13:36:57;;;;;;;13.15;9.20;;;4.00;99.90;;;;;;5045293;28;20190;-54